首页
METAR-TAF:

METAR-TAF

机场 :

门罗, 北卡罗来纳州, 美国

纬度: 35-01-01N, 经度: 080-37-14W, 海拔: 207米

当前天气观测

该预报发布于15分钟前的07:05 UTC
风速11节,风向,有时为23节阵风,在东南西南之间变化
温度 17°C
湿度 88%
气压 1006 hPa
能見度: 8.0公里
多云层高于1200英尺
阴天层高于2000英尺
小雨, 轻雾

METAR: KEQY 240705Z AUTO 17011G23KT 140V220 5SM -RA BR BKN012 OVC020 17/15 A2970 RMK AO2 P0002 T01670150

时间: 02:20 (07:20 UTC)


TAF: 丢失

超过4000个机场的气象观测和天气预报(METAR&TAF报告)。

可查询的气象台以黄色和红色小点在地图上表示。

将鼠标移到小点上方,可查看气象台名称。

然后点击查看天气观测和预报。

如需切换地图:点击带黑十字的绿色按钮放大地图;点击带横线的绿色按钮缩小地图;或者点击绿色箭头查看邻近地区的地图。


METAR-TAF: